Отчёт УТП Минеральные Воды 12.08.2020

12 Августа 2020 года в 17-19 UTC в аэропорту Минеральных Вод (URMM) прошли учебно-тренировочные полеты в сети IVAO.

В работе был Минводы-Подход.

Погода во время УТП:

METAR URMM 121800Z 26007MPS 9999 NSC 26/10 Q1011 R30/090070
           NOSIG RMK QFE730/0974=

Движение в воздухе было свободным, 2 борта курсанта выполнял упражнения.

1 борт по техническим причинам не смог начать выполнять программу упражнений.

Все курсанты справились со своими задачами. После полётов курсантов ожидал разбор полётов, где каждый услышал замечания от Инструктора.

Происшествий и нарушений правил УТП и IVAO – не зарегистрировано.